Time;durP1;ratioP1;P1;durP2;ratioP2;P2;SDS_P1;SDS_P2;PMS_P1;PMS_P2;Temp;Humidity;BMP_temperature;BMP_pressure;BME280_temperature;BME280_humidity;BME280_pressure;Samples;Min_cycle;Max_cycle;Signal;HPM_P1;HPM_P2
2022/08/16 00:01:17;;;;;;;5.60;2.40;;;26.80;61.70;;;;;;5051535;28;20496;-75
2022/08/16 00:03:44;;;;;;;6.85;2.58;;;26.80;61.60;;;;;;5052789;28;20071;-75
2022/08/16 00:06:11;;;;;;;5.25;2.72;;;26.80;61.60;;;;;;5052778;28;20029;-75
2022/08/16 00:08:37;;;;;;;5.15;2.60;;;26.80;61.60;;;;;;5052882;28;20021;-75
2022/08/16 00:11:05;;;;;;;7.18;3.00;;;26.80;61.40;;;;;;5052718;28;20025;-75
2022/08/16 00:13:32;;;;;;;8.45;2.58;;;26.80;61.80;;;;;;5052904;28;20029;-75
2022/08/16 00:15:58;;;;;;;6.72;2.40;;;26.80;61.90;;;;;;5052750;28;20044;-75
2022/08/16 00:18:24;;;;;;;5.20;2.25;;;26.90;60.40;;;;;;5052835;28;20029;-76
2022/08/16 00:20:50;;;;;;;6.35;2.33;;;26.90;59.70;;;;;;5051340;28;20082;-75
2022/08/16 00:23:16;;;;;;;5.80;2.13;;;27.00;57.70;;;;;;5052548;28;20037;-74
2022/08/16 00:25:42;;;;;;;5.72;2.40;;;27.10;57.50;;;;;;5052765;28;20029;-76
2022/08/16 00:28:07;;;;;;;7.40;2.05;;;27.30;55.40;;;;;;5052600;28;20021;-77
2022/08/16 00:30:33;;;;;;;6.85;2.33;;;27.40;56.10;;;;;;5052858;28;20048;-75
2022/08/16 00:33:00;;;;;;;5.10;2.20;;;27.30;56.40;;;;;;5052940;28;20110;-76
2022/08/16 00:35:34;;;;;;;9.88;3.03;;;27.20;57.70;;;;;;5051390;28;20474;-76
2022/08/16 00:38:04;;;;;;;4.15;2.13;;;27.10;58.50;;;;;;5051309;28;20393;-76
2022/08/16 00:40:39;;;;;;;5.82;2.60;;;27.00;59.60;;;;;;5054522;28;20022;-76
2022/08/16 00:43:27;;;;;;;4.82;2.70;;;27.00;61.60;;;;;;5071598;28;20112;-76
2022/08/16 00:46:05;;;;;;;5.25;2.63;;;26.90;61.80;;;;;;5056041;28;20029;-76
2022/08/16 00:48:32;;;;;;;8.57;2.95;;;26.80;63.00;;;;;;5056384;28;20056;-76
2022/08/16 00:50:58;;;;;;;6.00;3.15;;;26.80;63.00;;;;;;5054802;28;20028;-75
2022/08/16 00:53:24;;;;;;;6.88;2.97;;;26.70;64.10;;;;;;5056670;28;20366;-75
2022/08/16 00:55:53;;;;;;;5.32;3.08;;;26.60;65.10;;;;;;5054462;28;20490;-75
2022/08/16 00:58:22;;;;;;;6.97;3.05;;;26.50;67.20;;;;;;5056230;28;20037;-74
2022/08/16 01:00:49;;;;;;;5.65;3.33;;;26.40;68.10;;;;;;5056115;28;20104;-76
2022/08/16 01:03:19;;;;;;;6.05;3.30;;;26.30;68.60;;;;;;5056370;28;20494;-76
2022/08/16 01:05:45;;;;;;;6.28;3.35;;;26.30;68.30;;;;;;5056179;28;20123;-75
2022/08/16 01:08:13;;;;;;;7.63;3.47;;;26.20;67.00;;;;;;5056091;28;20351;-76
2022/08/16 01:10:39;;;;;;;7.00;2.92;;;26.10;66.30;;;;;;5054683;28;20025;-74
2022/08/16 01:13:07;;;;;;;5.50;2.85;;;26.10;65.40;;;;;;5054332;28;20116;-75
2022/08/16 01:15:36;;;;;;;6.28;3.05;;;26.10;64.50;;;;;;5054162;28;20036;-76
2022/08/16 01:18:05;;;;;;;5.18;2.85;;;26.10;63.90;;;;;;5055582;28;20025;-75
2022/08/16 01:20:36;;;;;;;6.50;2.92;;;26.10;63.30;;;;;;5054400;28;20025;-75
2022/08/16 01:23:23;;;;;;;8.32;2.85;;;26.10;63.10;;;;;;5055640;28;20502;-75
2022/08/16 01:25:51;;;;;;;4.85;2.65;;;26.10;62.50;;;;;;5055757;28;20017;-76
2022/08/16 01:28:19;;;;;;;3.85;2.42;;;26.10;62.10;;;;;;5054266;28;20032;-74
2022/08/16 01:30:49;;;;;;;9.25;2.92;;;26.10;61.70;;;;;;5055167;28;20462;-74
2022/08/16 01:33:16;;;;;;;6.35;2.72;;;26.10;61.70;;;;;;5055436;28;20032;-75
2022/08/16 01:35:55;;;;;;;7.63;3.10;;;26.10;61.40;;;;;;5055414;28;20029;-76
2022/08/16 01:38:32;;;;;;;4.70;2.72;;;26.10;61.20;;;;;;5055239;28;20052;-74
2022/08/16 01:41:04;;;;;;;4.43;2.45;;;26.10;60.70;;;;;;5055301;28;20486;-75
2022/08/16 01:43:32;;;;;;;5.43;2.87;;;26.20;60.50;;;;;;5054979;28;20033;-76
2022/08/16 01:46:01;;;;;;;5.13;2.90;;;26.20;60.00;;;;;;5054789;28;20689;-76
2022/08/16 01:48:30;;;;;;;6.80;2.70;;;26.20;60.00;;;;;;5053707;28;20500;-75
2022/08/16 01:50:57;;;;;;;6.28;2.85;;;26.30;59.80;;;;;;5054078;28;20135;-75
2022/08/16 01:53:23;;;;;;;6.68;2.97;;;26.30;59.60;;;;;;5054647;28;20489;-75
2022/08/16 01:55:49;;;;;;;4.78;2.70;;;26.30;59.20;;;;;;5053161;28;20482;-73
2022/08/16 01:58:16;;;;;;;5.45;2.53;;;26.30;59.20;;;;;;5054862;28;20036;-76
2022/08/16 02:00:43;;;;;;;6.10;2.72;;;26.30;59.20;;;;;;5054944;28;20505;-75
2022/08/16 02:03:08;;;;;;;7.60;2.50;;;26.30;59.00;;;;;;5054629;28;20030;-75
2022/08/16 02:05:35;;;;;;;6.53;2.88;;;26.30;59.10;;;;;;5054899;28;20096;-76
2022/08/16 02:08:03;;;;;;;4.32;2.75;;;26.30;59.10;;;;;;5053132;28;20028;-75
2022/08/16 02:10:30;;;;;;;8.50;3.22;;;26.30;59.40;;;;;;5053315;28;20067;-75
2022/08/16 02:12:56;;;;;;;6.78;2.90;;;26.20;59.20;;;;;;5053322;28;20071;-74
2022/08/16 02:15:25;;;;;;;4.82;2.75;;;26.20;59.50;;;;;;5054523;28;20025;-75
2022/08/16 02:17:56;;;;;;;5.95;2.85;;;26.20;59.50;;;;;;5053346;28;20029;-73
2022/08/16 02:20:23;;;;;;;6.68;2.70;;;26.20;59.70;;;;;;5054466;28;20071;-74
2022/08/16 02:22:49;;;;;;;6.93;2.70;;;26.10;59.50;;;;;;5054434;28;20060;-74
2022/08/16 02:25:15;;;;;;;4.45;2.42;;;26.10;59.60;;;;;;5054243;28;20100;-76
2022/08/16 02:27:43;;;;;;;5.45;2.72;;;26.10;59.50;;;;;;5054188;28;20430;-75
2022/08/16 02:30:13;;;;;;;7.82;2.75;;;26.10;59.70;;;;;;5054122;28;20416;-74
2022/08/16 02:32:40;;;;;;;6.03;2.78;;;26.10;60.00;;;;;;5054202;28;20025;-75
2022/08/16 02:35:06;;;;;;;6.93;2.78;;;26.10;60.60;;;;;;5054145;28;20504;-75
2022/08/16 02:37:32;;;;;;;9.57;3.03;;;26.10;60.00;;;;;;5052672;28;20021;-76
2022/08/16 02:39:58;;;;;;;8.73;3.08;;;26.10;60.10;;;;;;5052699;28;20057;-75
2022/08/16 02:42:24;;;;;;;6.65;3.10;;;26.10;60.20;;;;;;5052803;28;20054;-76
2022/08/16 02:44:49;;;;;;;5.72;3.20;;;26.10;60.40;;;;;;5054032;28;20081;-75
2022/08/16 02:47:15;;;;;;;5.13;2.70;;;26.10;60.60;;;;;;5054186;28;20028;-76
2022/08/16 02:49:42;;;;;;;5.85;2.88;;;26.10;60.70;;;;;;5053945;28;20025;-75
2022/08/16 02:52:09;;;;;;;6.22;3.33;;;26.10;60.80;;;;;;5053437;28;20373;-76
2022/08/16 02:54:35;;;;;;;6.65;3.20;;;26.10;60.80;;;;;;5052384;28;20028;-75
2022/08/16 02:57:03;;;;;;;6.05;2.53;;;26.10;60.70;;;;;;5053506;28;20132;-75
2022/08/16 02:59:29;;;;;;;7.32;2.55;;;26.10;60.60;;;;;;5052154;28;20557;-75
2022/08/16 03:01:55;;;;;;;9.50;2.78;;;26.10;60.40;;;;;;5068978;28;20087;-75
2022/08/16 03:04:22;;;;;;;6.35;2.50;;;26.10;60.40;;;;;;5052935;28;20501;-76
2022/08/16 03:06:48;;;;;;;5.07;2.63;;;26.00;60.70;;;;;;5051952;28;20124;-76
2022/08/16 03:09:14;;;;;;;5.50;2.30;;;26.10;60.60;;;;;;5053708;28;20060;-76
2022/08/16 03:11:40;;;;;;;6.97;2.72;;;26.00;60.00;;;;;;5053238;28;20056;-75
2022/08/16 03:14:06;;;;;;;6.97;2.63;;;26.00;60.00;;;;;;5053269;28;20032;-75
2022/08/16 03:16:32;;;;;;;6.57;2.50;;;26.00;59.70;;;;;;5053178;28;20025;-75
2022/08/16 03:18:58;;;;;;;7.03;2.63;;;26.00;59.50;;;;;;5053362;28;20478;-75
2022/08/16 03:21:24;;;;;;;7.82;2.13;;;25.90;59.40;;;;;;5053262;28;20087;-76
2022/08/16 03:23:50;;;;;;;6.93;2.45;;;25.90;59.50;;;;;;5051870;28;20076;-76
2022/08/16 03:26:16;;;;;;;5.63;2.42;;;26.00;59.40;;;;;;5052093;28;20061;-75
2022/08/16 03:28:42;;;;;;;4.38;2.58;;;25.90;58.90;;;;;;5053322;28;20576;-76
2022/08/16 03:31:07;;;;;;;10.25;2.80;;;25.90;59.20;;;;;;5053251;28;20029;-76
2022/08/16 03:33:34;;;;;;;4.63;2.20;;;25.90;59.10;;;;;;5053136;28;20051;-74
2022/08/16 03:36:00;;;;;;;4.05;2.20;;;25.90;59.20;;;;;;5052988;28;20462;-76
2022/08/16 03:38:28;;;;;;;4.82;2.33;;;25.90;58.90;;;;;;5051674;28;20028;-76
2022/08/16 03:40:55;;;;;;;3.85;2.25;;;25.90;58.60;;;;;;5051382;28;20090;-75
2022/08/16 03:43:22;;;;;;;3.88;2.17;;;25.90;58.70;;;;;;5051165;28;20037;-75
2022/08/16 03:45:50;;;;;;;5.47;2.13;;;25.90;58.40;;;;;;5051452;28;20087;-75
2022/08/16 03:48:16;;;;;;;5.38;2.28;;;25.90;58.40;;;;;;5052868;28;20035;-75
2022/08/16 03:50:42;;;;;;;4.70;1.98;;;25.90;58.30;;;;;;5052851;28;20096;-75
2022/08/16 03:53:08;;;;;;;6.57;2.30;;;25.90;58.00;;;;;;5052754;28;20049;-76
2022/08/16 03:55:34;;;;;;;4.18;2.17;;;25.90;58.00;;;;;;5067235;22;21751;-72
2022/08/16 03:58:00;;;;;;;4.05;1.95;;;25.90;58.10;;;;;;5051509;28;20378;-74
2022/08/16 04:00:30;;;;;;;7.82;2.40;;;25.90;57.90;;;;;;5051189;28;20415;-74
2022/08/16 04:03:01;;;;;;;6.47;2.30;;;25.90;58.10;;;;;;5052519;28;20060;-76
2022/08/16 04:05:27;;;;;;;8.23;2.50;;;25.90;58.10;;;;;;5052203;28;20486;-73
2022/08/16 04:07:53;;;;;;;7.78;2.35;;;25.90;58.20;;;;;;5051235;28;20029;-75
2022/08/16 04:10:19;;;;;;;5.35;2.20;;;25.90;58.20;;;;;;5052954;28;20120;-74
2022/08/16 04:12:45;;;;;;;5.28;2.28;;;25.90;58.20;;;;;;5052521;28;20028;-74
2022/08/16 04:15:13;;;;;;;6.80;2.40;;;25.90;58.30;;;;;;5054034;28;20089;-75
2022/08/16 04:17:39;;;;;;;3.80;2.20;;;25.90;58.30;;;;;;5056304;28;20359;-74
2022/08/16 04:20:07;;;;;;;7.75;2.40;;;25.90;58.20;;;;;;5056516;28;20528;-73
2022/08/16 04:22:33;;;;;;;7.22;2.25;;;25.90;58.20;;;;;;5056111;28;20071;-73
2022/08/16 04:24:59;;;;;;;5.43;2.47;;;25.90;58.30;;;;;;5054916;28;20052;-75
2022/08/16 04:27:26;;;;;;;8.13;2.33;;;25.90;58.20;;;;;;5056265;28;20462;-74
2022/08/16 04:29:52;;;;;;;5.63;2.38;;;26.00;58.60;;;;;;5056040;28;20108;-75
2022/08/16 04:32:17;;;;;;;5.28;2.58;;;26.00;58.60;;;;;;5056230;28;20163;-74
2022/08/16 04:34:43;;;;;;;5.15;2.60;;;26.00;58.80;;;;;;5056162;28;20532;-75
2022/08/16 04:37:09;;;;;;;5.40;2.60;;;26.00;59.20;;;;;;5055926;28;20036;-75
2022/08/16 04:39:36;;;;;;;4.78;2.70;;;26.00;59.80;;;;;;5055792;28;20021;-76
2022/08/16 04:42:02;;;;;;;5.07;2.58;;;26.00;60.20;;;;;;5055931;28;20029;-75
2022/08/16 04:44:28;;;;;;;8.60;3.38;;;25.90;60.80;;;;;;5055813;28;20029;-75
2022/08/16 04:46:54;;;;;;;7.88;2.95;;;26.00;61.00;;;;;;5054424;28;20463;-74
2022/08/16 04:49:21;;;;;;;7.50;2.72;;;25.90;61.30;;;;;;5055875;28;20489;-73
2022/08/16 04:51:47;;;;;;;7.47;4.80;;;25.90;61.90;;;;;;5054605;28;20017;-76
2022/08/16 04:54:13;;;;;;;5.85;3.17;;;25.90;62.50;;;;;;5055776;28;20027;-76
2022/08/16 04:56:40;;;;;;;11.52;3.08;;;25.80;62.60;;;;;;5055697;28;20053;-77
2022/08/16 04:59:07;;;;;;;7.95;3.15;;;25.70;63.10;;;;;;5055610;28;20060;-76
2022/08/16 05:01:34;;;;;;;8.02;2.90;;;25.80;63.40;;;;;;5055755;28;20044;-76
2022/08/16 05:04:00;;;;;;;10.05;3.05;;;25.70;63.60;;;;;;5055492;28;20033;-76
2022/08/16 05:06:26;;;;;;;7.43;3.15;;;25.70;63.80;;;;;;5055488;28;20079;-75
2022/08/16 05:08:52;;;;;;;7.95;2.70;;;25.70;63.90;;;;;;5055423;28;20086;-76
2022/08/16 05:11:19;;;;;;;7.50;2.80;;;25.70;64.30;;;;;;5055582;28;20025;-74
2022/08/16 05:13:46;;;;;;;7.90;2.90;;;25.70;64.40;;;;;;5055486;28;20017;-77
2022/08/16 05:16:19;;;;;;;8.82;3.05;;;25.60;64.40;;;;;;5055364;28;20021;-74
2022/08/16 05:18:45;;;;;;;6.60;3.03;;;25.60;65.50;;;;;;5055304;28;20071;-74
2022/08/16 05:21:11;;;;;;;7.15;2.80;;;25.60;64.50;;;;;;5055786;28;20017;-74
2022/08/16 05:23:37;;;;;;;7.10;3.10;;;25.70;64.70;;;;;;5055448;28;20043;-76
2022/08/16 05:26:02;;;;;;;6.25;2.83;;;25.70;64.50;;;;;;5055179;28;20192;-74
2022/08/16 05:28:28;;;;;;;6.53;3.00;;;25.70;64.30;;;;;;5055484;28;20064;-76
2022/08/16 05:30:54;;;;;;;8.05;2.90;;;25.80;64.10;;;;;;5055009;28;20032;-75
2022/08/16 05:33:20;;;;;;;6.85;3.00;;;25.80;63.80;;;;;;5055484;28;20082;-75
2022/08/16 05:35:47;;;;;;;7.65;2.83;;;25.90;63.50;;;;;;5058701;28;20017;-75
2022/08/16 05:38:13;;;;;;;6.97;2.88;;;25.90;63.50;;;;;;5060008;28;20037;-76
2022/08/16 05:40:39;;;;;;;5.72;2.60;;;26.00;63.30;;;;;;5060080;28;20100;-76
2022/08/16 05:43:05;;;;;;;5.75;2.50;;;26.10;62.90;;;;;;5055496;28;20378;-76
2022/08/16 05:45:31;;;;;;;4.88;2.60;;;26.20;62.70;;;;;;5054838;28;20025;-76
2022/08/16 05:47:57;;;;;;;11.52;2.65;;;26.30;62.50;;;;;;5054597;28;20025;-74
2022/08/16 05:50:23;;;;;;;7.75;2.63;;;26.50;62.20;;;;;;5054864;28;20021;-76
2022/08/16 05:52:49;;;;;;;4.63;2.13;;;26.50;61.20;;;;;;5054858;28;20122;-76
2022/08/16 05:55:15;;;;;;;8.48;2.38;;;26.60;60.90;;;;;;5054748;28;20051;-76
2022/08/16 05:57:40;;;;;;;5.72;2.10;;;26.60;60.40;;;;;;5054767;28;20056;-73
2022/08/16 06:00:10;;;;;;;7.85;2.38;;;26.70;60.00;;;;;;5057391;28;20025;-75
2022/08/16 06:02:36;;;;;;;4.43;2.08;;;26.90;59.30;;;;;;5057667;28;20555;-76
2022/08/16 06:05:04;;;;;;;5.72;2.35;;;27.10;59.00;;;;;;5055258;28;20032;-77
2022/08/16 06:07:30;;;;;;;6.35;2.25;;;27.20;58.40;;;;;;5054652;28;20021;-76
2022/08/16 06:09:58;;;;;;;6.53;2.05;;;27.40;58.10;;;;;;5054628;28;20035;-76
2022/08/16 06:12:24;;;;;;;5.97;2.22;;;27.60;57.30;;;;;;5054557;28;20105;-73
2022/08/16 06:14:50;;;;;;;5.65;2.00;;;27.80;56.40;;;;;;5054154;28;20040;-77
2022/08/16 06:17:16;;;;;;;5.43;2.35;;;27.90;56.20;;;;;;5054157;28;20499;-75
2022/08/16 06:19:42;;;;;;;5.05;2.38;;;28.10;56.00;;;;;;5053091;28;20029;-76
2022/08/16 06:22:09;;;;;;;8.07;2.33;;;28.30;55.50;;;;;;5054326;28;20374;-78
2022/08/16 06:24:35;;;;;;;4.95;2.20;;;28.50;55.50;;;;;;5053889;28;20072;-74
2022/08/16 06:27:02;;;;;;;5.72;2.03;;;28.70;54.90;;;;;;5053914;28;20052;-76
2022/08/16 06:29:27;;;;;;;8.38;2.63;;;28.80;54.60;;;;;;5053868;28;20397;-76
2022/08/16 06:31:54;;;;;;;9.90;2.75;;;28.90;54.30;;;;;;5053931;28;20024;-76
2022/08/16 06:34:19;;;;;;;5.40;2.45;;;29.00;54.10;;;;;;5054782;28;20108;-77
2022/08/16 06:36:45;;;;;;;6.05;2.50;;;29.20;53.60;;;;;;5053806;28;20519;-77
2022/08/16 06:39:11;;;;;;;11.35;2.70;;;29.30;53.60;;;;;;5053295;28;20478;-75
2022/08/16 06:41:37;;;;;;;6.60;2.35;;;29.30;53.20;;;;;;5053822;28;20040;-78
2022/08/16 06:44:03;;;;;;;8.48;2.35;;;29.50;53.10;;;;;;5053597;28;20474;-75
2022/08/16 06:46:38;;;;;;;9.57;2.35;;;29.60;52.40;;;;;;5053738;28;20365;-74
2022/08/16 06:49:08;;;;;;;5.78;2.22;;;29.70;52.60;;;;;;5053867;28;20036;-75
2022/08/16 06:51:35;;;;;;;5.88;2.50;;;29.70;53.10;;;;;;5053617;28;20051;-75
2022/08/16 06:54:02;;;;;;;9.23;2.83;;;29.80;52.90;;;;;;5053664;28;20033;-78
2022/08/16 06:56:28;;;;;;;5.43;2.05;;;29.90;52.30;;;;;;5053196;28;20124;-76
2022/08/16 06:58:54;;;;;;;8.73;2.30;;;29.90;51.50;;;;;;5053705;28;20067;-75
2022/08/16 07:01:21;;;;;;;7.63;2.17;;;30.00;51.50;;;;;;5053438;28;20032;-74
2022/08/16 07:03:47;;;;;;;7.30;2.85;;;30.10;51.40;;;;;;5053710;28;20415;-76
2022/08/16 07:06:13;;;;;;;6.75;2.63;;;30.20;50.70;;;;;;5053623;28;20553;-74
2022/08/16 07:08:41;;;;;;;7.43;2.05;;;30.20;50.30;;;;;;5052200;28;20469;-78
2022/08/16 07:11:07;;;;;;;9.38;2.20;;;30.30;50.10;;;;;;5053517;28;20032;-76
2022/08/16 07:13:34;;;;;;;8.52;2.08;;;30.30;50.10;;;;;;5053504;28;20041;-77
2022/08/16 07:16:00;;;;;;;5.70;2.33;;;30.30;49.40;;;;;;5052035;28;20056;-76
2022/08/16 07:18:26;;;;;;;7.45;2.40;;;30.40;49.50;;;;;;5053305;28;20032;-76
2022/08/16 07:20:52;;;;;;;9.68;2.35;;;30.40;49.20;;;;;;5053300;28;20021;-75
2022/08/16 07:23:19;;;;;;;6.82;2.45;;;30.40;49.20;;;;;;5053210;28;20552;-76
2022/08/16 07:25:45;;;;;;;6.10;2.40;;;30.40;49.50;;;;;;5053177;28;20036;-77
2022/08/16 07:28:18;;;;;;;5.32;2.00;;;30.50;48.80;;;;;;5053192;28;20032;-75
2022/08/16 07:30:46;;;;;;;6.18;2.20;;;30.50;47.70;;;;;;5053056;28;20025;-77
2022/08/16 07:33:13;;;;;;;5.13;2.03;;;30.60;48.70;;;;;;5053217;28;20493;-74
2022/08/16 07:35:39;;;;;;;7.20;2.10;;;30.70;48.80;;;;;;5052967;28;20470;-77
2022/08/16 07:38:06;;;;;;;3.67;1.95;;;30.70;48.50;;;;;;5052945;28;20096;-76
2022/08/16 07:40:34;;;;;;;5.38;2.28;;;30.70;48.00;;;;;;5052900;28;20098;-76
2022/08/16 07:43:00;;;;;;;5.30;2.10;;;30.70;48.10;;;;;;5052876;28;20083;-76
2022/08/16 07:45:27;;;;;;;6.40;2.03;;;30.80;48.10;;;;;;5051430;28;20119;-76
2022/08/16 07:47:52;;;;;;;4.88;2.00;;;30.90;48.00;;;;;;5051873;28;20025;-76
2022/08/16 07:50:19;;;;;;;7.38;2.40;;;31.00;47.90;;;;;;5053162;28;20035;-75
2022/08/16 07:52:45;;;;;;;5.20;2.10;;;31.00;47.90;;;;;;5053150;28;20025;-77
2022/08/16 07:55:13;;;;;;;5.63;1.92;;;30.90;47.90;;;;;;5052969;28;20021;-77
2022/08/16 07:57:40;;;;;;;6.80;2.05;;;31.00;47.80;;;;;;5058244;28;20063;-76
2022/08/16 08:00:07;;;;;;;5.95;2.10;;;31.10;47.70;;;;;;5058420;28;20469;-75
2022/08/16 08:02:33;;;;;;;6.90;2.15;;;31.10;46.90;;;;;;5062760;28;20040;-76
2022/08/16 08:04:59;;;;;;;3.83;1.65;;;31.20;47.20;;;;;;5056225;28;20509;-75
2022/08/16 08:07:25;;;;;;;5.90;2.25;;;31.20;46.60;;;;;;5051249;28;20124;-75
2022/08/16 08:09:51;;;;;;;6.75;1.77;;;31.10;46.50;;;;;;5052631;28;20033;-77
2022/08/16 08:12:18;;;;;;;6.97;1.73;;;31.10;46.60;;;;;;5051521;28;20021;-75
2022/08/16 08:14:45;;;;;;;6.70;2.13;;;31.00;46.60;;;;;;5052615;28;20448;-77
2022/08/16 08:17:11;;;;;;;9.75;2.00;;;31.00;46.50;;;;;;5053502;28;20048;-77
2022/08/16 08:19:37;;;;;;;4.75;2.25;;;31.00;46.40;;;;;;5057950;28;20021;-78
2022/08/16 08:22:05;;;;;;;8.02;2.00;;;30.90;46.50;;;;;;5054808;28;20040;-77
2022/08/16 08:24:36;;;;;;;5.03;1.58;;;30.90;46.20;;;;;;5052697;28;20078;-76
2022/08/16 08:27:03;;;;;;;7.13;2.10;;;30.80;45.60;;;;;;5052386;28;20029;-76
2022/08/16 08:29:29;;;;;;;5.60;1.85;;;30.70;46.20;;;;;;5052727;28;20040;-77
2022/08/16 08:31:55;;;;;;;4.45;1.88;;;30.70;46.60;;;;;;5052555;28;20506;-76
2022/08/16 08:34:21;;;;;;;7.65;2.00;;;30.70;46.20;;;;;;5052717;28;20056;-76
2022/08/16 08:36:50;;;;;;;7.25;2.03;;;30.70;47.10;;;;;;5052411;28;20036;-76
2022/08/16 08:39:16;;;;;;;4.55;1.80;;;30.70;46.10;;;;;;5052712;28;20039;-74
2022/08/16 08:41:43;;;;;;;5.40;1.85;;;30.80;46.90;;;;;;5052373;28;20029;-77
2022/08/16 08:44:10;;;;;;;6.07;1.70;;;30.80;47.00;;;;;;5052274;28;20033;-76
2022/08/16 08:46:36;;;;;;;6.22;2.20;;;30.90;46.80;;;;;;5052139;28;20022;-76
2022/08/16 08:49:02;;;;;;;5.03;2.03;;;30.90;46.90;;;;;;5052335;28;20032;-76
2022/08/16 08:51:29;;;;;;;7.15;2.03;;;31.00;46.90;;;;;;5052104;28;20063;-72
2022/08/16 08:53:55;;;;;;;8.07;2.13;;;31.00;46.90;;;;;;5052136;28;20040;-76
2022/08/16 08:56:21;;;;;;;6.10;2.20;;;31.00;46.80;;;;;;5051873;28;20041;-77
2022/08/16 08:58:47;;;;;;;4.97;1.92;;;31.00;47.00;;;;;;5052061;28;20025;-76
2022/08/16 09:01:16;;;;;;;9.10;2.83;;;31.00;46.90;;;;;;5053194;28;20356;-76
2022/08/16 09:03:41;;;;;;;5.63;1.88;;;30.90;46.90;;;;;;5055648;28;20116;-75
2022/08/16 09:06:08;;;;;;;5.93;1.92;;;31.00;47.10;;;;;;5055434;28;20096;-75
2022/08/16 09:08:34;;;;;;;6.20;2.00;;;31.00;47.10;;;;;;5055631;28;20109;-75
2022/08/16 09:11:00;;;;;;;7.22;1.92;;;31.10;47.00;;;;;;5055764;28;20017;-76
2022/08/16 09:13:26;;;;;;;9.25;1.75;;;31.20;46.40;;;;;;5055462;28;20425;-76
2022/08/16 09:15:54;;;;;;;7.47;1.90;;;31.20;46.30;;;;;;5055373;28;20035;-76
2022/08/16 09:18:23;;;;;;;7.80;2.30;;;31.20;45.70;;;;;;5055339;28;20401;-77
2022/08/16 09:20:52;;;;;;;7.90;2.20;;;31.30;45.50;;;;;;5055423;28;20548;-73
2022/08/16 09:23:19;;;;;;;7.65;1.92;;;31.30;45.30;;;;;;5055060;28;20032;-73
2022/08/16 09:25:45;;;;;;;12.30;2.10;;;31.30;45.30;;;;;;5055246;28;20025;-75
2022/08/16 09:28:11;;;;;;;8.18;2.20;;;31.40;45.10;;;;;;5055767;28;20470;-75
2022/08/16 09:30:37;;;;;;;6.22;2.00;;;31.40;45.40;;;;;;5055335;28;20056;-76
2022/08/16 09:33:05;;;;;;;7.05;2.42;;;31.40;45.70;;;;;;5055104;28;20100;-77
2022/08/16 09:35:31;;;;;;;9.93;2.20;;;31.40;45.80;;;;;;5054869;28;20093;-75
2022/08/16 09:37:57;;;;;;;7.82;2.20;;;31.50;46.10;;;;;;5055043;28;20017;-75
2022/08/16 09:40:23;;;;;;;14.23;2.72;;;31.60;46.40;;;;;;5055259;28;20247;-76
2022/08/16 09:42:52;;;;;;;10.73;2.65;;;31.60;46.50;;;;;;5054630;28;20065;-75
2022/08/16 09:45:19;;;;;;;6.65;1.92;;;31.70;46.90;;;;;;5054935;28;20033;-75
2022/08/16 09:47:46;;;;;;;10.82;2.83;;;31.70;46.40;;;;;;5054818;28;20072;-76
2022/08/16 09:50:13;;;;;;;11.95;2.53;;;31.70;46.50;;;;;;5054729;28;20036;-76
2022/08/16 09:52:39;;;;;;;16.23;2.40;;;31.70;46.80;;;;;;5055220;28;20378;-75
2022/08/16 09:55:08;;;;;;;8.25;2.40;;;31.80;46.40;;;;;;5054703;28;20029;-75
2022/08/16 09:57:35;;;;;;;13.77;2.58;;;31.80;46.30;;;;;;5054406;28;20110;-76
2022/08/16 10:00:01;;;;;;;11.00;3.00;;;31.80;46.90;;;;;;5054906;28;20407;-74
2022/08/16 10:02:28;;;;;;;9.20;2.58;;;31.90;46.90;;;;;;5054902;28;20020;-77
2022/08/16 10:04:56;;;;;;;7.38;2.58;;;31.90;46.90;;;;;;5053203;28;20036;-76
2022/08/16 10:07:26;;;;;;;8.40;2.72;;;31.90;47.50;;;;;;5054288;28;20068;-76
2022/08/16 10:09:52;;;;;;;15.48;2.83;;;32.00;47.40;;;;;;5054536;28;20025;-75
2022/08/16 10:15:04;;;;;;;12.55;2.70;;;32.10;46.20;;;;;;5054579;28;20039;-76
2022/08/16 10:17:29;;;;;;;9.63;2.55;;;32.10;46.60;;;;;;5054730;28;20028;-76
2022/08/16 10:19:55;;;;;;;8.90;2.47;;;32.20;47.00;;;;;;5057082;28;20343;-75
2022/08/16 10:22:21;;;;;;;10.48;2.97;;;32.20;47.00;;;;;;5065665;28;20025;-76
2022/08/16 10:24:47;;;;;;;8.68;2.60;;;32.30;47.10;;;;;;5066363;28;20037;-75
2022/08/16 10:27:13;;;;;;;9.43;2.83;;;32.30;47.20;;;;;;5060126;28;20057;-77
2022/08/16 10:29:41;;;;;;;11.40;2.92;;;32.40;47.30;;;;;;5054085;28;20032;-76
2022/08/16 10:32:07;;;;;;;10.05;2.70;;;32.40;46.70;;;;;;5054228;28;20116;-77
2022/08/16 10:34:32;;;;;;;9.25;2.67;;;32.40;47.50;;;;;;5054268;28;20029;-76
2022/08/16 10:37:01;;;;;;;13.80;3.42;;;32.40;47.80;;;;;;5053827;28;20063;-76
2022/08/16 10:39:27;;;;;;;12.23;3.13;;;32.50;48.40;;;;;;5055079;28;20029;-76
2022/08/16 10:41:52;;;;;;;12.02;3.63;;;32.50;48.10;;;;;;5053810;28;20101;-75
2022/08/16 10:44:18;;;;;;;16.85;5.03;;;32.60;48.10;;;;;;5053493;28;20041;-76
2022/08/16 10:46:44;;;;;;;19.40;7.30;;;32.60;47.90;;;;;;5053774;28;20398;-76
2022/08/16 10:49:11;;;;;;;11.98;5.50;;;32.80;47.90;;;;;;5053731;28;20107;-76
2022/08/16 10:51:38;;;;;;;14.13;5.00;;;32.80;48.00;;;;;;5053711;28;20021;-76
2022/08/16 10:54:04;;;;;;;17.13;4.53;;;32.80;47.50;;;;;;5053775;28;20096;-76
2022/08/16 10:56:31;;;;;;;26.65;10.35;;;32.90;48.70;;;;;;5053175;28;20049;-76
2022/08/16 10:58:58;;;;;;;16.08;5.50;;;33.00;48.30;;;;;;5053267;28;20025;-77
2022/08/16 11:01:25;;;;;;;15.25;5.88;;;33.00;48.50;;;;;;5051910;28;20040;-78
2022/08/16 11:03:52;;;;;;;16.25;5.93;;;33.00;48.40;;;;;;5053461;28;20033;-76
2022/08/16 11:06:18;;;;;;;12.52;4.85;;;33.10;48.30;;;;;;5053099;28;20098;-76
2022/08/16 11:08:44;;;;;;;20.20;6.80;;;33.10;48.00;;;;;;5053349;28;20063;-76
2022/08/16 11:11:12;;;;;;;12.25;3.25;;;33.20;48.00;;;;;;5053212;28;20033;-75
2022/08/16 11:13:38;;;;;;;14.18;3.95;;;33.20;47.60;;;;;;5053013;28;20041;-76
2022/08/16 11:16:05;;;;;;;14.02;3.30;;;33.20;47.20;;;;;;5052895;28;20029;-75
2022/08/16 11:18:31;;;;;;;10.75;3.13;;;33.20;46.90;;;;;;5053244;28;20480;-79
2022/08/16 11:20:58;;;;;;;8.70;2.42;;;33.30;47.00;;;;;;5052815;28;20029;-74
2022/08/16 11:23:25;;;;;;;9.55;2.53;;;33.40;47.00;;;;;;5052552;28;20394;-78
2022/08/16 11:25:52;;;;;;;12.13;3.35;;;33.40;47.00;;;;;;5052830;28;20093;-75
2022/08/16 11:28:18;;;;;;;14.23;3.88;;;33.50;47.20;;;;;;5052862;28;20481;-76
2022/08/16 11:30:46;;;;;;;18.60;4.70;;;33.60;47.60;;;;;;5053007;28;20426;-77
2022/08/16 11:33:12;;;;;;;14.35;3.30;;;33.60;47.10;;;;;;5052790;28;20462;-77
2022/08/16 11:35:38;;;;;;;10.18;3.22;;;33.70;47.00;;;;;;5052792;28;20024;-78
2022/08/16 11:38:14;;;;;;;12.45;3.40;;;33.70;46.80;;;;;;5051480;28;20028;-76
2022/08/16 11:40:47;;;;;;;12.25;3.25;;;33.80;46.60;;;;;;5052789;28;20419;-76
2022/08/16 11:43:22;;;;;;;17.17;3.63;;;33.90;46.40;;;;;;5052560;28;20036;-75
2022/08/16 11:45:49;;;;;;;13.90;3.60;;;33.90;47.00;;;;;;5052660;28;20029;-75
2022/08/16 11:48:17;;;;;;;12.00;3.20;;;33.90;47.50;;;;;;5052514;28;20478;-76
2022/08/16 11:50:44;;;;;;;14.18;3.78;;;33.90;47.50;;;;;;5052646;28;20037;-77
2022/08/16 11:53:11;;;;;;;12.15;3.38;;;33.90;47.50;;;;;;5052404;28;20017;-76
2022/08/16 11:55:39;;;;;;;13.77;3.67;;;33.90;48.10;;;;;;5050813;28;20033;-74
2022/08/16 11:58:08;;;;;;;17.90;3.67;;;33.90;48.30;;;;;;5052672;28;20021;-75
2022/08/16 12:00:36;;;;;;;17.13;3.88;;;34.00;48.60;;;;;;5051447;28;20146;-77
2022/08/16 12:03:02;;;;;;;12.85;3.78;;;34.10;48.80;;;;;;5052524;28;20079;-78
2022/08/16 12:05:28;;;;;;;18.23;3.95;;;34.10;48.90;;;;;;5052931;28;20029;-76
2022/08/16 12:07:54;;;;;;;12.65;3.88;;;34.30;49.30;;;;;;5052353;28;20064;-78
2022/08/16 12:10:22;;;;;;;15.68;4.32;;;34.40;50.50;;;;;;5052635;28;20100;-76
2022/08/16 12:12:48;;;;;;;17.20;4.00;;;34.50;51.10;;;;;;5052412;28;20035;-73
2022/08/16 12:15:14;;;;;;;17.92;4.30;;;34.60;49.50;;;;;;5052189;28;20036;-76
2022/08/16 12:17:42;;;;;;;17.42;4.50;;;34.60;50.30;;;;;;5051167;28;20022;-76
2022/08/16 12:20:12;;;;;;;16.15;4.07;;;34.60;50.20;;;;;;5052384;28;20072;-75
2022/08/16 12:22:38;;;;;;;14.98;3.95;;;34.50;50.50;;;;;;5052330;28;20071;-76
2022/08/16 12:25:06;;;;;;;13.68;4.40;;;34.50;51.20;;;;;;5052581;28;20041;-75
2022/08/16 12:27:34;;;;;;;19.75;4.13;;;34.40;51.50;;;;;;5052578;28;20017;-75
2022/08/16 12:29:59;;;;;;;22.30;4.45;;;34.40;52.30;;;;;;5052402;28;20090;-74
2022/08/16 12:32:26;;;;;;;15.70;4.82;;;34.40;52.70;;;;;;5052807;28;20080;-76
2022/08/16 12:34:51;;;;;;;19.35;4.97;;;34.50;52.90;;;;;;5052620;28;20036;-76
2022/08/16 12:37:17;;;;;;;21.60;4.63;;;34.70;53.20;;;;;;5056031;28;20025;-74
2022/08/16 12:39:43;;;;;;;19.52;4.80;;;34.80;53.30;;;;;;5056068;28;20099;-76
2022/08/16 12:42:10;;;;;;;20.60;4.55;;;34.90;53.40;;;;;;5057648;28;20040;-76
2022/08/16 12:44:36;;;;;;;17.10;4.40;;;34.90;52.50;;;;;;5061220;28;20025;-78
2022/08/16 12:49:48;;;;;;;20.05;5.40;;;35.10;53.90;;;;;;5058416;28;20035;-75